createdAt,value
2022-12-13T00:07:30.453Z,101200.0
2022-12-13T00:17:30.445Z,101190.0
2022-12-13T00:27:30.445Z,101190.0
2022-12-13T00:37:30.450Z,101200.0
2022-12-13T00:47:30.450Z,101190.0
2022-12-13T00:57:30.454Z,101180.0
2022-12-13T01:07:30.464Z,101180.0
2022-12-13T01:17:30.461Z,101190.0
2022-12-13T01:27:30.455Z,101190.0
2022-12-13T01:37:30.474Z,101190.0
2022-12-13T01:47:30.460Z,101190.0
2022-12-13T01:57:30.456Z,101190.0
2022-12-13T02:07:30.462Z,101180.0
2022-12-13T02:17:30.471Z,101190.0
2022-12-13T02:27:31.245Z,101190.0
2022-12-13T02:37:30.464Z,101190.0
2022-12-13T02:47:30.468Z,101170.0
2022-12-13T02:57:30.472Z,101170.0
2022-12-13T03:07:30.471Z,101170.0
2022-12-13T03:17:30.470Z,101160.0
2022-12-13T03:27:30.473Z,101160.0
2022-12-13T03:37:30.487Z,101160.0
2022-12-13T03:47:30.477Z,101160.0
2022-12-13T03:57:30.475Z,101160.0
2022-12-13T04:07:34.837Z,101160.0
2022-12-13T04:17:30.474Z,101170.0
2022-12-13T04:27:30.484Z,101140.0
2022-12-13T04:37:30.545Z,101150.0
2022-12-13T04:47:30.483Z,101140.0
2022-12-13T04:57:30.488Z,101140.0
2022-12-13T05:07:30.491Z,101140.0
2022-12-13T05:17:30.493Z,101140.0
2022-12-13T05:27:30.509Z,101130.0
2022-12-13T05:37:35.078Z,101130.0
2022-12-13T05:47:30.499Z,101110.0
2022-12-13T05:57:30.498Z,101110.0
2022-12-13T06:07:30.496Z,101100.0
2022-12-13T06:17:30.498Z,101100.0
2022-12-13T06:27:30.509Z,101110.0
2022-12-13T06:37:30.513Z,101110.0
2022-12-13T06:47:32.717Z,101110.0
2022-12-13T06:57:30.502Z,101110.0
2022-12-13T07:07:30.522Z,101110.0
2022-12-13T07:17:34.712Z,101110.0
2022-12-13T07:27:30.509Z,101120.0
2022-12-13T07:37:31.320Z,101120.0
2022-12-13T07:47:30.515Z,101130.0
2022-12-13T07:57:30.521Z,101130.0
2022-12-13T08:07:30.521Z,101140.0
2022-12-13T08:17:30.520Z,101140.0
2022-12-13T08:27:30.530Z,101130.0
2022-12-13T08:37:30.538Z,101130.0
2022-12-13T08:47:30.536Z,101130.0
2022-12-13T08:57:30.540Z,101150.0
2022-12-13T09:07:30.537Z,101150.0
2022-12-13T09:17:37.650Z,101150.0
2022-12-13T09:27:30.558Z,101140.0
2022-12-13T09:37:30.544Z,101150.0
2022-12-13T09:47:35.786Z,101160.0
2022-12-13T09:57:34.192Z,101140.0
2022-12-13T10:07:30.553Z,101120.0
2022-12-13T10:17:30.557Z,101110.0
2022-12-13T10:27:30.557Z,101100.0
2022-12-13T10:37:30.568Z,101090.0
2022-12-13T10:47:30.560Z,101060.0
2022-12-13T10:57:30.570Z,101050.0
2022-12-13T11:07:30.576Z,101040.0
2022-12-13T11:17:30.575Z,101040.0
2022-12-13T11:27:30.584Z,101030.0
2022-12-13T11:37:30.589Z,101020.0
2022-12-13T11:47:30.587Z,101030.0
2022-12-13T11:57:30.597Z,101010.0
2022-12-13T12:07:34.252Z,100990.0
2022-12-13T12:17:42.020Z,100990.0
2022-12-13T12:27:30.595Z,100980.0
2022-12-13T12:37:30.604Z,100980.0
2022-12-13T12:48:29.776Z,100980.0
2022-12-13T12:57:30.621Z,100980.0
2022-12-13T13:07:30.610Z,100970.0
2022-12-13T13:17:30.612Z,100980.0
2022-12-13T13:27:30.621Z,100970.0
2022-12-13T13:37:30.615Z,100950.0
2022-12-13T13:47:30.624Z,100950.0
2022-12-13T13:58:08.462Z,100920.0
2022-12-13T14:07:30.630Z,100920.0
2022-12-13T14:17:30.627Z,100910.0
2022-12-13T14:27:30.629Z,100920.0
2022-12-13T14:37:30.772Z,100930.0
2022-12-13T14:47:30.621Z,100910.0
2022-12-13T14:57:30.632Z,100910.0
2022-12-13T15:07:30.629Z,100900.0
2022-12-13T15:17:30.638Z,100890.0
2022-12-13T15:27:30.644Z,100890.0
2022-12-13T15:37:30.646Z,100880.0
2022-12-13T15:47:30.639Z,100860.0
2022-12-13T15:57:30.638Z,100840.0
2022-12-13T16:07:30.637Z,100850.0
2022-12-13T16:17:30.644Z,100850.0
2022-12-13T16:27:30.646Z,100840.0
2022-12-13T16:37:30.677Z,100830.0
2022-12-13T16:47:44.741Z,100830.0
2022-12-13T16:57:30.649Z,100820.0
2022-12-13T17:07:30.650Z,100810.0
2022-12-13T17:17:30.659Z,100810.0
2022-12-13T17:27:30.652Z,100820.0
2022-12-13T17:37:30.665Z,100840.0
2022-12-13T17:47:30.660Z,100830.0
2022-12-13T17:57:30.665Z,100820.0
2022-12-13T18:07:30.703Z,100820.0
2022-12-13T18:18:09.656Z,100820.0
2022-12-13T18:27:30.675Z,100810.0
2022-12-13T18:37:30.667Z,100810.0
2022-12-13T18:47:30.673Z,100790.0
2022-12-13T18:57:30.689Z,100790.0
2022-12-13T19:07:30.671Z,100790.0
2022-12-13T19:17:30.675Z,100790.0
2022-12-13T19:27:30.682Z,100770.0
2022-12-13T19:37:30.680Z,100770.0
2022-12-13T19:47:30.678Z,100760.0
2022-12-13T19:57:30.683Z,100740.0
2022-12-13T20:07:30.686Z,100720.0
2022-12-13T20:17:30.689Z,100700.0
2022-12-13T20:27:30.684Z,100670.0
2022-12-13T20:37:30.697Z,100670.0
2022-12-13T20:47:36.385Z,100650.0
2022-12-13T20:57:30.698Z,100640.0
2022-12-13T21:07:30.706Z,100620.0
2022-12-13T21:17:30.706Z,100610.0
2022-12-13T21:27:30.709Z,100610.0
2022-12-13T21:37:30.719Z,100590.0
2022-12-13T21:47:30.709Z,100570.0
2022-12-13T21:57:30.717Z,100570.0
2022-12-13T22:07:30.715Z,100560.0
2022-12-13T22:17:36.483Z,100560.0
2022-12-13T22:27:30.725Z,100560.0
2022-12-13T22:37:30.722Z,100550.0
2022-12-13T22:47:30.716Z,100540.0
2022-12-13T22:57:30.725Z,100540.0
2022-12-13T23:07:30.731Z,100530.0
2022-12-13T23:17:30.727Z,100520.0
2022-12-13T23:27:30.849Z,100500.0
2022-12-13T23:37:30.729Z,100490.0
2022-12-13T23:47:30.739Z,100490.0
2022-12-13T23:57:30.742Z,100470.0
